Terminal Aerodrome Forecast
Issued by NWS Mt. Holly, NJ

Home | Current Version | Previous Version | Text Only | Print | Product List | Glossary On
Versions: 1 2 3 4 5 6 7 8 9 10 11 12 13 14 15 16 17 18 19 20 21 22 23 24 25
000
FTUS41 KPHI 230849 AAA
TAFPHL
TAF AMD
KPHL 230849Z 2309/2412 20005KT P6SM BKN120 OVC250
     FM231100 22008KT P6SM BKN050 OVC120
     FM231500 23012KT 4SM SHRA OVC015
      TEMPO 2315/2319 3SM TSRA BKN010CB
     FM231900 23014G21KT P6SM SCT025 OVC050 PROB30 2319/2323 3SM
      TSRA BKN025CB
     FM232300 24012KT P6SM BKN040 OVC120
     FM240400 24007KT 4SM SHRA OVC040
     FM241000 24008KT 2SM +SHRA OVC010=

USA.gov is the U.S. government's official web portal to all federal, state and local government web resources and services.